sensor_id;sensor_type;location;lat;lon;timestamp;P1;durP1;ratioP1;P2;durP2;ratioP2
31442;SDS011;18065;55.876;9.830;2022-08-21T00:00:43;5.38;;;2.58;;
31442;SDS011;18065;55.876;9.830;2022-08-21T00:03:13;5.93;;;3.22;;
31442;SDS011;18065;55.876;9.830;2022-08-21T00:05:43;3.78;;;2.67;;
31442;SDS011;18065;55.876;9.830;2022-08-21T00:08:15;4.63;;;2.47;;
31442;SDS011;18065;55.876;9.830;2022-08-21T00:10:44;4.28;;;2.47;;
31442;SDS011;18065;55.876;9.830;2022-08-21T00:13:16;4.95;;;2.75;;
31442;SDS011;18065;55.876;9.830;2022-08-21T00:15:47;5.82;;;2.58;;
31442;SDS011;18065;55.876;9.830;2022-08-21T00:18:17;3.47;;;2.63;;
31442;SDS011;18065;55.876;9.830;2022-08-21T00:20:47;5.15;;;2.38;;
31442;SDS011;18065;55.876;9.830;2022-08-21T00:23:16;6.13;;;2.50;;
31442;SDS011;18065;55.876;9.830;2022-08-21T00:25:45;3.03;;;2.47;;
31442;SDS011;18065;55.876;9.830;2022-08-21T00:28:17;3.72;;;2.28;;
31442;SDS011;18065;55.876;9.830;2022-08-21T00:30:45;4.65;;;2.20;;
31442;SDS011;18065;55.876;9.830;2022-08-21T00:33:14;2.95;;;1.90;;
31442;SDS011;18065;55.876;9.830;2022-08-21T00:35:43;4.55;;;2.42;;
31442;SDS011;18065;55.876;9.830;2022-08-21T00:38:11;4.88;;;2.03;;
31442;SDS011;18065;55.876;9.830;2022-08-21T00:40:42;3.72;;;2.13;;
31442;SDS011;18065;55.876;9.830;2022-08-21T00:43:14;4.47;;;1.95;;
31442;SDS011;18065;55.876;9.830;2022-08-21T00:45:48;4.75;;;1.77;;
31442;SDS011;18065;55.876;9.830;2022-08-21T00:48:18;2.63;;;1.80;;
31442;SDS011;18065;55.876;9.830;2022-08-21T00:50:48;2.63;;;1.73;;
31442;SDS011;18065;55.876;9.830;2022-08-21T00:53:20;3.20;;;1.80;;
31442;SDS011;18065;55.876;9.830;2022-08-21T00:55:50;4.40;;;1.67;;
31442;SDS011;18065;55.876;9.830;2022-08-21T00:58:22;4.38;;;1.77;;
31442;SDS011;18065;55.876;9.830;2022-08-21T01:00:51;4.18;;;2.00;;
31442;SDS011;18065;55.876;9.830;2022-08-21T01:03:21;2.78;;;1.65;;
31442;SDS011;18065;55.876;9.830;2022-08-21T01:05:52;5.15;;;1.90;;
31442;SDS011;18065;55.876;9.830;2022-08-21T01:08:21;2.13;;;1.88;;
31442;SDS011;18065;55.876;9.830;2022-08-21T01:10:52;5.07;;;1.60;;
31442;SDS011;18065;55.876;9.830;2022-08-21T01:13:24;3.45;;;1.40;;
31442;SDS011;18065;55.876;9.830;2022-08-21T01:15:54;3.03;;;1.55;;
31442;SDS011;18065;55.876;9.830;2022-08-21T01:18:24;2.60;;;1.50;;
31442;SDS011;18065;55.876;9.830;2022-08-21T01:21:04;4.72;;;1.60;;
31442;SDS011;18065;55.876;9.830;2022-08-21T01:23:38;3.05;;;1.50;;
31442;SDS011;18065;55.876;9.830;2022-08-21T01:26:10;3.22;;;1.45;;
31442;SDS011;18065;55.876;9.830;2022-08-21T01:28:40;2.90;;;1.40;;
31442;SDS011;18065;55.876;9.830;2022-08-21T01:31:12;2.05;;;1.30;;
31442;SDS011;18065;55.876;9.830;2022-08-21T01:33:42;2.65;;;1.40;;
31442;SDS011;18065;55.876;9.830;2022-08-21T01:36:14;3.15;;;1.60;;
31442;SDS011;18065;55.876;9.830;2022-08-21T01:38:43;2.65;;;1.30;;
31442;SDS011;18065;55.876;9.830;2022-08-21T01:41:12;4.75;;;1.52;;
31442;SDS011;18065;55.876;9.830;2022-08-21T01:43:41;2.53;;;1.38;;
31442;SDS011;18065;55.876;9.830;2022-08-21T01:46:10;3.75;;;1.40;;
31442;SDS011;18065;55.876;9.830;2022-08-21T01:48:40;3.20;;;1.23;;
31442;SDS011;18065;55.876;9.830;2022-08-21T01:51:09;3.30;;;1.52;;
31442;SDS011;18065;55.876;9.830;2022-08-21T01:53:41;2.78;;;1.10;;
31442;SDS011;18065;55.876;9.830;2022-08-21T01:56:10;2.50;;;1.20;;
31442;SDS011;18065;55.876;9.830;2022-08-21T01:58:42;1.80;;;1.10;;
31442;SDS011;18065;55.876;9.830;2022-08-21T02:01:12;4.15;;;1.38;;
31442;SDS011;18065;55.876;9.830;2022-08-21T02:03:41;3.67;;;1.27;;
31442;SDS011;18065;55.876;9.830;2022-08-21T02:06:12;4.35;;;1.90;;
31442;SDS011;18065;55.876;9.830;2022-08-21T02:08:45;3.10;;;1.20;;
31442;SDS011;18065;55.876;9.830;2022-08-21T02:11:15;3.28;;;1.55;;
31442;SDS011;18065;55.876;9.830;2022-08-21T02:13:44;3.10;;;1.27;;
31442;SDS011;18065;55.876;9.830;2022-08-21T02:16:13;2.40;;;1.42;;
31442;SDS011;18065;55.876;9.830;2022-08-21T02:18:42;3.35;;;1.60;;
31442;SDS011;18065;55.876;9.830;2022-08-21T02:21:11;3.17;;;1.20;;
31442;SDS011;18065;55.876;9.830;2022-08-21T02:23:39;2.13;;;1.48;;
31442;SDS011;18065;55.876;9.830;2022-08-21T02:26:11;3.10;;;1.52;;
31442;SDS011;18065;55.876;9.830;2022-08-21T02:28:40;2.65;;;1.27;;
31442;SDS011;18065;55.876;9.830;2022-08-21T02:31:09;3.55;;;1.42;;
31442;SDS011;18065;55.876;9.830;2022-08-21T02:33:38;3.00;;;1.38;;
31442;SDS011;18065;55.876;9.830;2022-08-21T02:36:08;2.40;;;1.48;;
31442;SDS011;18065;55.876;9.830;2022-08-21T02:38:38;1.55;;;1.20;;
31442;SDS011;18065;55.876;9.830;2022-08-21T02:41:12;2.15;;;1.30;;
31442;SDS011;18065;55.876;9.830;2022-08-21T02:43:43;1.92;;;1.40;;
31442;SDS011;18065;55.876;9.830;2022-08-21T02:46:13;2.35;;;1.20;;
31442;SDS011;18065;55.876;9.830;2022-08-21T02:48:43;1.98;;;1.05;;
31442;SDS011;18065;55.876;9.830;2022-08-21T02:51:12;1.58;;;1.10;;
31442;SDS011;18065;55.876;9.830;2022-08-21T02:53:43;1.90;;;1.10;;
31442;SDS011;18065;55.876;9.830;2022-08-21T02:56:17;3.35;;;1.33;;
31442;SDS011;18065;55.876;9.830;2022-08-21T02:58:48;2.25;;;1.35;;
31442;SDS011;18065;55.876;9.830;2022-08-21T03:01:18;4.65;;;1.38;;
31442;SDS011;18065;55.876;9.830;2022-08-21T03:03:47;1.65;;;1.10;;
31442;SDS011;18065;55.876;9.830;2022-08-21T03:06:19;1.92;;;1.50;;
31442;SDS011;18065;55.876;9.830;2022-08-21T03:08:49;4.43;;;1.40;;
31442;SDS011;18065;55.876;9.830;2022-08-21T03:11:21;1.75;;;1.13;;
31442;SDS011;18065;55.876;9.830;2022-08-21T03:13:50;4.18;;;1.80;;
31442;SDS011;18065;55.876;9.830;2022-08-21T03:16:19;3.67;;;1.40;;
31442;SDS011;18065;55.876;9.830;2022-08-21T03:18:48;3.90;;;1.20;;
31442;SDS011;18065;55.876;9.830;2022-08-21T03:21:17;3.33;;;1.48;;
31442;SDS011;18065;55.876;9.830;2022-08-21T03:23:46;2.30;;;1.30;;
31442;SDS011;18065;55.876;9.830;2022-08-21T03:26:15;3.05;;;1.63;;
31442;SDS011;18065;55.876;9.830;2022-08-21T03:28:46;2.65;;;1.25;;
31442;SDS011;18065;55.876;9.830;2022-08-21T03:31:15;1.77;;;1.10;;
31442;SDS011;18065;55.876;9.830;2022-08-21T03:33:46;1.48;;;1.30;;
31442;SDS011;18065;55.876;9.830;2022-08-21T03:36:16;2.78;;;1.20;;
31442;SDS011;18065;55.876;9.830;2022-08-21T03:38:44;2.50;;;1.02;;
31442;SDS011;18065;55.876;9.830;2022-08-21T03:41:13;1.20;;;1.00;;
31442;SDS011;18065;55.876;9.830;2022-08-21T03:43:42;2.63;;;1.15;;
31442;SDS011;18065;55.876;9.830;2022-08-21T03:46:13;1.75;;;1.20;;
31442;SDS011;18065;55.876;9.830;2022-08-21T03:48:42;1.40;;;1.00;;
31442;SDS011;18065;55.876;9.830;2022-08-21T03:51:10;2.50;;;1.20;;
31442;SDS011;18065;55.876;9.830;2022-08-21T03:53:40;2.35;;;1.33;;
31442;SDS011;18065;55.876;9.830;2022-08-21T03:56:10;4.22;;;1.33;;
31442;SDS011;18065;55.876;9.830;2022-08-21T03:58:39;1.25;;;1.05;;
31442;SDS011;18065;55.876;9.830;2022-08-21T04:01:07;2.65;;;1.27;;
31442;SDS011;18065;55.876;9.830;2022-08-21T04:03:40;3.28;;;1.42;;
31442;SDS011;18065;55.876;9.830;2022-08-21T04:06:09;3.38;;;1.30;;
31442;SDS011;18065;55.876;9.830;2022-08-21T04:08:38;3.58;;;1.52;;
31442;SDS011;18065;55.876;9.830;2022-08-21T04:11:08;3.15;;;1.10;;
31442;SDS011;18065;55.876;9.830;2022-08-21T04:13:38;1.58;;;1.20;;
31442;SDS011;18065;55.876;9.830;2022-08-21T04:16:07;3.35;;;1.52;;
31442;SDS011;18065;55.876;9.830;2022-08-21T04:18:36;3.65;;;1.20;;
31442;SDS011;18065;55.876;9.830;2022-08-21T04:21:07;1.77;;;1.20;;
31442;SDS011;18065;55.876;9.830;2022-08-21T04:23:38;1.98;;;1.23;;
31442;SDS011;18065;55.876;9.830;2022-08-21T04:26:06;1.92;;;1.33;;
31442;SDS011;18065;55.876;9.830;2022-08-21T04:28:35;3.28;;;1.23;;
31442;SDS011;18065;55.876;9.830;2022-08-21T04:31:04;1.92;;;0.90;;
31442;SDS011;18065;55.876;9.830;2022-08-21T04:33:33;2.03;;;1.05;;
31442;SDS011;18065;55.876;9.830;2022-08-21T04:36:02;3.25;;;1.20;;
31442;SDS011;18065;55.876;9.830;2022-08-21T04:38:34;3.10;;;1.30;;
31442;SDS011;18065;55.876;9.830;2022-08-21T04:41:03;1.77;;;1.05;;
31442;SDS011;18065;55.876;9.830;2022-08-21T04:43:32;2.28;;;1.10;;
31442;SDS011;18065;55.876;9.830;2022-08-21T04:46:01;5.63;;;2.22;;
31442;SDS011;18065;55.876;9.830;2022-08-21T04:48:30;3.28;;;1.00;;
31442;SDS011;18065;55.876;9.830;2022-08-21T04:51:01;3.80;;;1.20;;
31442;SDS011;18065;55.876;9.830;2022-08-21T04:53:36;1.95;;;1.13;;
31442;SDS011;18065;55.876;9.830;2022-08-21T04:58:36;2.05;;;0.90;;
31442;SDS011;18065;55.876;9.830;2022-08-21T05:01:09;3.00;;;1.02;;
31442;SDS011;18065;55.876;9.830;2022-08-21T05:03:47;1.65;;;1.20;;
31442;SDS011;18065;55.876;9.830;2022-08-21T05:06:18;3.55;;;1.50;;
31442;SDS011;18065;55.876;9.830;2022-08-21T05:08:50;3.35;;;1.20;;
31442;SDS011;18065;55.876;9.830;2022-08-21T05:11:22;4.70;;;1.10;;
31442;SDS011;18065;55.876;9.830;2022-08-21T05:13:51;2.53;;;1.00;;
31442;SDS011;18065;55.876;9.830;2022-08-21T05:16:19;2.70;;;1.00;;
31442;SDS011;18065;55.876;9.830;2022-08-21T05:18:51;3.63;;;1.10;;
31442;SDS011;18065;55.876;9.830;2022-08-21T05:21:19;1.20;;;0.93;;
31442;SDS011;18065;55.876;9.830;2022-08-21T05:23:51;2.95;;;1.05;;
31442;SDS011;18065;55.876;9.830;2022-08-21T05:26:19;3.25;;;1.05;;
31442;SDS011;18065;55.876;9.830;2022-08-21T05:28:48;2.47;;;1.02;;
31442;SDS011;18065;55.876;9.830;2022-08-21T05:31:17;1.85;;;1.20;;
31442;SDS011;18065;55.876;9.830;2022-08-21T05:33:46;1.38;;;1.10;;
31442;SDS011;18065;55.876;9.830;2022-08-21T05:36:14;2.20;;;1.15;;
31442;SDS011;18065;55.876;9.830;2022-08-21T05:38:44;1.95;;;1.02;;
31442;SDS011;18065;55.876;9.830;2022-08-21T05:41:15;1.75;;;1.00;;
31442;SDS011;18065;55.876;9.830;2022-08-21T05:43:44;1.95;;;1.10;;
31442;SDS011;18065;55.876;9.830;2022-08-21T05:46:13;3.05;;;1.10;;
31442;SDS011;18065;55.876;9.830;2022-08-21T05:48:42;1.92;;;1.30;;
31442;SDS011;18065;55.876;9.830;2022-08-21T05:51:15;3.80;;;1.05;;
31442;SDS011;18065;55.876;9.830;2022-08-21T05:53:44;2.17;;;1.10;;
31442;SDS011;18065;55.876;9.830;2022-08-21T05:56:15;1.60;;;1.05;;
31442;SDS011;18065;55.876;9.830;2022-08-21T05:58:44;2.38;;;1.13;;
31442;SDS011;18065;55.876;9.830;2022-08-21T06:01:13;2.40;;;1.00;;
31442;SDS011;18065;55.876;9.830;2022-08-21T06:03:42;3.08;;;1.13;;
31442;SDS011;18065;55.876;9.830;2022-08-21T06:06:10;4.40;;;1.38;;
31442;SDS011;18065;55.876;9.830;2022-08-21T06:08:39;3.15;;;0.95;;
31442;SDS011;18065;55.876;9.830;2022-08-21T06:11:08;2.13;;;1.15;;
31442;SDS011;18065;55.876;9.830;2022-08-21T06:13:40;3.20;;;1.00;;
31442;SDS011;18065;55.876;9.830;2022-08-21T06:16:09;2.42;;;1.00;;
31442;SDS011;18065;55.876;9.830;2022-08-21T06:18:40;3.58;;;1.20;;
31442;SDS011;18065;55.876;9.830;2022-08-21T06:21:09;2.47;;;1.00;;
31442;SDS011;18065;55.876;9.830;2022-08-21T06:23:39;3.35;;;1.20;;
31442;SDS011;18065;55.876;9.830;2022-08-21T06:26:08;4.28;;;1.23;;
31442;SDS011;18065;55.876;9.830;2022-08-21T06:28:41;3.30;;;1.33;;
31442;SDS011;18065;55.876;9.830;2022-08-21T06:31:11;2.75;;;1.20;;
31442;SDS011;18065;55.876;9.830;2022-08-21T06:33:41;4.40;;;1.13;;
31442;SDS011;18065;55.876;9.830;2022-08-21T06:36:09;2.28;;;1.20;;
31442;SDS011;18065;55.876;9.830;2022-08-21T06:38:38;5.25;;;1.13;;
31442;SDS011;18065;55.876;9.830;2022-08-21T06:41:08;2.08;;;1.00;;
31442;SDS011;18065;55.876;9.830;2022-08-21T06:43:37;2.60;;;1.20;;
31442;SDS011;18065;55.876;9.830;2022-08-21T06:46:08;1.65;;;1.00;;
31442;SDS011;18065;55.876;9.830;2022-08-21T06:48:37;9.38;;;1.67;;
31442;SDS011;18065;55.876;9.830;2022-08-21T06:51:06;4.20;;;1.27;;
31442;SDS011;18065;55.876;9.830;2022-08-21T06:53:35;1.60;;;1.02;;
31442;SDS011;18065;55.876;9.830;2022-08-21T06:56:04;3.53;;;1.30;;
31442;SDS011;18065;55.876;9.830;2022-08-21T06:58:33;4.13;;;1.15;;
31442;SDS011;18065;55.876;9.830;2022-08-21T07:01:02;3.60;;;1.50;;
31442;SDS011;18065;55.876;9.830;2022-08-21T07:03:38;5.15;;;1.30;;
31442;SDS011;18065;55.876;9.830;2022-08-21T07:06:08;6.13;;;1.65;;
31442;SDS011;18065;55.876;9.830;2022-08-21T07:08:38;3.60;;;1.30;;
31442;SDS011;18065;55.876;9.830;2022-08-21T07:11:09;5.93;;;1.85;;
31442;SDS011;18065;55.876;9.830;2022-08-21T07:16:09;4.07;;;1.23;;
31442;SDS011;18065;55.876;9.830;2022-08-21T07:18:40;6.60;;;1.40;;
31442;SDS011;18065;55.876;9.830;2022-08-21T07:21:09;4.13;;;1.67;;
31442;SDS011;18065;55.876;9.830;2022-08-21T07:23:39;5.78;;;1.65;;
31442;SDS011;18065;55.876;9.830;2022-08-21T07:26:10;6.65;;;1.60;;
31442;SDS011;18065;55.876;9.830;2022-08-21T07:28:39;10.35;;;1.50;;
31442;SDS011;18065;55.876;9.830;2022-08-21T07:31:08;2.60;;;1.45;;
31442;SDS011;18065;55.876;9.830;2022-08-21T07:33:42;5.45;;;1.40;;
31442;SDS011;18065;55.876;9.830;2022-08-21T07:36:11;13.32;;;5.75;;
31442;SDS011;18065;55.876;9.830;2022-08-21T07:38:41;18.60;;;8.38;;
31442;SDS011;18065;55.876;9.830;2022-08-21T07:41:14;19.75;;;8.80;;
31442;SDS011;18065;55.876;9.830;2022-08-21T07:43:45;25.92;;;11.23;;
31442;SDS011;18065;55.876;9.830;2022-08-21T07:46:14;27.95;;;14.65;;
31442;SDS011;18065;55.876;9.830;2022-08-21T07:48:46;23.85;;;11.95;;
31442;SDS011;18065;55.876;9.830;2022-08-21T07:51:15;17.75;;;8.88;;
31442;SDS011;18065;55.876;9.830;2022-08-21T07:53:47;13.60;;;6.28;;
31442;SDS011;18065;55.876;9.830;2022-08-21T07:56:17;11.77;;;4.05;;
31442;SDS011;18065;55.876;9.830;2022-08-21T07:58:47;25.90;;;4.05;;
31442;SDS011;18065;55.876;9.830;2022-08-21T08:01:15;8.07;;;3.53;;
31442;SDS011;18065;55.876;9.830;2022-08-21T08:03:47;6.45;;;3.08;;
31442;SDS011;18065;55.876;9.830;2022-08-21T08:06:16;6.90;;;2.38;;
31442;SDS011;18065;55.876;9.830;2022-08-21T08:08:44;7.07;;;2.13;;
31442;SDS011;18065;55.876;9.830;2022-08-21T08:11:13;9.90;;;2.55;;
31442;SDS011;18065;55.876;9.830;2022-08-21T08:13:44;9.60;;;1.73;;
31442;SDS011;18065;55.876;9.830;2022-08-21T08:16:14;6.35;;;2.00;;
31442;SDS011;18065;55.876;9.830;2022-08-21T08:18:44;6.28;;;1.80;;
31442;SDS011;18065;55.876;9.830;2022-08-21T08:21:16;4.72;;;1.65;;
31442;SDS011;18065;55.876;9.830;2022-08-21T08:23:46;4.28;;;1.60;;
31442;SDS011;18065;55.876;9.830;2022-08-21T08:26:14;5.20;;;1.73;;
31442;SDS011;18065;55.876;9.830;2022-08-21T08:28:43;5.25;;;1.30;;
31442;SDS011;18065;55.876;9.830;2022-08-21T08:31:13;3.28;;;1.35;;
31442;SDS011;18065;55.876;9.830;2022-08-21T08:33:42;3.50;;;1.23;;
31442;SDS011;18065;55.876;9.830;2022-08-21T08:36:17;5.22;;;1.67;;
31442;SDS011;18065;55.876;9.830;2022-08-21T08:38:46;6.03;;;1.40;;
31442;SDS011;18065;55.876;9.830;2022-08-21T08:41:16;2.53;;;1.30;;
31442;SDS011;18065;55.876;9.830;2022-08-21T08:43:49;4.88;;;1.55;;
31442;SDS011;18065;55.876;9.830;2022-08-21T08:46:24;7.73;;;1.70;;
31442;SDS011;18065;55.876;9.830;2022-08-21T08:48:59;4.63;;;1.60;;
31442;SDS011;18065;55.876;9.830;2022-08-21T08:51:39;6.13;;;1.33;;
31442;SDS011;18065;55.876;9.830;2022-08-21T08:54:14;4.32;;;1.35;;
31442;SDS011;18065;55.876;9.830;2022-08-21T08:56:45;6.50;;;1.33;;
31442;SDS011;18065;55.876;9.830;2022-08-21T08:59:17;3.63;;;1.40;;
31442;SDS011;18065;55.876;9.830;2022-08-21T09:01:49;4.00;;;1.77;;
31442;SDS011;18065;55.876;9.830;2022-08-21T09:04:18;4.97;;;1.27;;
31442;SDS011;18065;55.876;9.830;2022-08-21T09:06:58;5.45;;;1.50;;
31442;SDS011;18065;55.876;9.830;2022-08-21T09:09:40;4.57;;;1.48;;
31442;SDS011;18065;55.876;9.830;2022-08-21T09:12:19;3.25;;;1.20;;
31442;SDS011;18065;55.876;9.830;2022-08-21T09:14:58;7.97;;;1.73;;
31442;SDS011;18065;55.876;9.830;2022-08-21T09:17:37;3.85;;;1.27;;
31442;SDS011;18065;55.876;9.830;2022-08-21T09:20:18;10.97;;;1.73;;
31442;SDS011;18065;55.876;9.830;2022-08-21T09:22:57;3.55;;;1.30;;
31442;SDS011;18065;55.876;9.830;2022-08-21T09:25:38;4.00;;;1.30;;
31442;SDS011;18065;55.876;9.830;2022-08-21T09:28:11;5.07;;;1.83;;
31442;SDS011;18065;55.876;9.830;2022-08-21T09:30:40;4.72;;;1.30;;
31442;SDS011;18065;55.876;9.830;2022-08-21T09:33:09;4.57;;;1.25;;
31442;SDS011;18065;55.876;9.830;2022-08-21T09:35:50;6.30;;;1.17;;
31442;SDS011;18065;55.876;9.830;2022-08-21T09:38:29;2.97;;;1.35;;
31442;SDS011;18065;55.876;9.830;2022-08-21T09:41:01;4.85;;;1.35;;
31442;SDS011;18065;55.876;9.830;2022-08-21T09:43:32;2.40;;;1.10;;
31442;SDS011;18065;55.876;9.830;2022-08-21T09:46:04;3.78;;;1.40;;
31442;SDS011;18065;55.876;9.830;2022-08-21T09:48:43;2.70;;;1.00;;
31442;SDS011;18065;55.876;9.830;2022-08-21T09:51:14;6.25;;;1.45;;
31442;SDS011;18065;55.876;9.830;2022-08-21T09:53:48;2.97;;;1.17;;
31442;SDS011;18065;55.876;9.830;2022-08-21T09:56:20;2.03;;;1.00;;
31442;SDS011;18065;55.876;9.830;2022-08-21T09:59:18;2.83;;;1.00;;
31442;SDS011;18065;55.876;9.830;2022-08-21T10:01:55;3.08;;;1.02;;
31442;SDS011;18065;55.876;9.830;2022-08-21T10:04:27;3.95;;;1.17;;
31442;SDS011;18065;55.876;9.830;2022-08-21T10:07:07;3.45;;;1.23;;
31442;SDS011;18065;55.876;9.830;2022-08-21T10:09:40;6.28;;;1.33;;
31442;SDS011;18065;55.876;9.830;2022-08-21T10:12:12;4.65;;;1.30;;
31442;SDS011;18065;55.876;9.830;2022-08-21T10:14:47;6.63;;;1.83;;
31442;SDS011;18065;55.876;9.830;2022-08-21T10:17:27;4.95;;;1.25;;
31442;SDS011;18065;55.876;9.830;2022-08-21T10:20:03;8.05;;;1.85;;
31442;SDS011;18065;55.876;9.830;2022-08-21T10:22:38;2.83;;;1.20;;
31442;SDS011;18065;55.876;9.830;2022-08-21T10:25:18;6.50;;;1.50;;
31442;SDS011;18065;55.876;9.830;2022-08-21T10:27:54;5.00;;;1.40;;
31442;SDS011;18065;55.876;9.830;2022-08-21T10:30:34;4.53;;;1.42;;
31442;SDS011;18065;55.876;9.830;2022-08-21T10:33:14;7.97;;;2.15;;
31442;SDS011;18065;55.876;9.830;2022-08-21T10:35:52;12.45;;;2.45;;
31442;SDS011;18065;55.876;9.830;2022-08-21T10:41:35;7.32;;;2.08;;
31442;SDS011;18065;55.876;9.830;2022-08-21T10:44:16;7.63;;;1.88;;
31442;SDS011;18065;55.876;9.830;2022-08-21T10:46:54;6.03;;;1.50;;
31442;SDS011;18065;55.876;9.830;2022-08-21T10:49:32;2.67;;;1.70;;
31442;SDS011;18065;55.876;9.830;2022-08-21T10:52:22;3.80;;;1.15;;
31442;SDS011;18065;55.876;9.830;2022-08-21T10:55:00;7.57;;;1.40;;
31442;SDS011;18065;55.876;9.830;2022-08-21T10:57:36;5.10;;;1.27;;
31442;SDS011;18065;55.876;9.830;2022-08-21T11:00:11;3.67;;;1.30;;
31442;SDS011;18065;55.876;9.830;2022-08-21T11:02:45;3.42;;;1.33;;
31442;SDS011;18065;55.876;9.830;2022-08-21T11:05:19;2.53;;;1.20;;
31442;SDS011;18065;55.876;9.830;2022-08-21T11:07:53;4.28;;;1.50;;
31442;SDS011;18065;55.876;9.830;2022-08-21T11:10:25;4.57;;;0.95;;
31442;SDS011;18065;55.876;9.830;2022-08-21T11:13:02;2.35;;;1.15;;
31442;SDS011;18065;55.876;9.830;2022-08-21T11:15:36;3.70;;;1.20;;
31442;SDS011;18065;55.876;9.830;2022-08-21T11:18:17;3.78;;;1.23;;
31442;SDS011;18065;55.876;9.830;2022-08-21T11:21:02;5.05;;;1.77;;
31442;SDS011;18065;55.876;9.830;2022-08-21T11:23:38;4.95;;;1.20;;
31442;SDS011;18065;55.876;9.830;2022-08-21T11:26:13;3.20;;;1.42;;
31442;SDS011;18065;55.876;9.830;2022-08-21T11:28:50;5.03;;;1.80;;
31442;SDS011;18065;55.876;9.830;2022-08-21T11:31:27;4.50;;;1.63;;
31442;SDS011;18065;55.876;9.830;2022-08-21T11:34:12;3.33;;;1.65;;
31442;SDS011;18065;55.876;9.830;2022-08-21T11:36:51;5.75;;;1.65;;
31442;SDS011;18065;55.876;9.830;2022-08-21T11:39:30;4.10;;;1.60;;
31442;SDS011;18065;55.876;9.830;2022-08-21T11:42:08;4.80;;;1.65;;
31442;SDS011;18065;55.876;9.830;2022-08-21T11:44:52;3.37;;;1.70;;
31442;SDS011;18065;55.876;9.830;2022-08-21T11:47:31;3.58;;;1.40;;
31442;SDS011;18065;55.876;9.830;2022-08-21T11:50:12;5.25;;;1.60;;
31442;SDS011;18065;55.876;9.830;2022-08-21T11:52:43;5.95;;;1.55;;
31442;SDS011;18065;55.876;9.830;2022-08-21T11:55:15;4.63;;;1.75;;
31442;SDS011;18065;55.876;9.830;2022-08-21T11:57:49;11.35;;;2.30;;
31442;SDS011;18065;55.876;9.830;2022-08-21T12:00:25;4.13;;;1.60;;
31442;SDS011;18065;55.876;9.830;2022-08-21T12:02:58;5.70;;;1.80;;
31442;SDS011;18065;55.876;9.830;2022-08-21T12:05:38;7.55;;;2.20;;
31442;SDS011;18065;55.876;9.830;2022-08-21T12:08:11;6.97;;;2.00;;
31442;SDS011;18065;55.876;9.830;2022-08-21T12:10:42;5.77;;;2.23;;
31442;SDS011;18065;55.876;9.830;2022-08-21T12:13:22;6.05;;;1.75;;
31442;SDS011;18065;55.876;9.830;2022-08-21T12:16:04;7.82;;;2.10;;
31442;SDS011;18065;55.876;9.830;2022-08-21T12:18:33;5.22;;;1.60;;
31442;SDS011;18065;55.876;9.830;2022-08-21T12:21:05;8.65;;;2.60;;
31442;SDS011;18065;55.876;9.830;2022-08-21T12:23:47;4.30;;;1.80;;
31442;SDS011;18065;55.876;9.830;2022-08-21T12:26:27;4.28;;;1.35;;
31442;SDS011;18065;55.876;9.830;2022-08-21T12:29:04;4.15;;;1.90;;
31442;SDS011;18065;55.876;9.830;2022-08-21T12:31:52;6.72;;;1.90;;
31442;SDS011;18065;55.876;9.830;2022-08-21T12:34:27;3.35;;;1.95;;
31442;SDS011;18065;55.876;9.830;2022-08-21T12:37:01;6.85;;;1.75;;
31442;SDS011;18065;55.876;9.830;2022-08-21T12:39:33;7.05;;;2.03;;
31442;SDS011;18065;55.876;9.830;2022-08-21T12:42:06;5.57;;;2.42;;
31442;SDS011;18065;55.876;9.830;2022-08-21T12:44:42;5.38;;;1.92;;
31442;SDS011;18065;55.876;9.830;2022-08-21T12:47:17;7.20;;;1.75;;
31442;SDS011;18065;55.876;9.830;2022-08-21T12:49:54;9.15;;;2.08;;
31442;SDS011;18065;55.876;9.830;2022-08-21T12:52:29;5.22;;;1.67;;
31442;SDS011;18065;55.876;9.830;2022-08-21T12:55:00;6.10;;;2.20;;
31442;SDS011;18065;55.876;9.830;2022-08-21T12:57:29;6.63;;;2.10;;
31442;SDS011;18065;55.876;9.830;2022-08-21T12:59:59;6.43;;;1.95;;
31442;SDS011;18065;55.876;9.830;2022-08-21T13:02:33;7.00;;;2.33;;
31442;SDS011;18065;55.876;9.830;2022-08-21T13:05:06;4.30;;;1.70;;
31442;SDS011;18065;55.876;9.830;2022-08-21T13:07:43;6.15;;;1.85;;
31442;SDS011;18065;55.876;9.830;2022-08-21T13:10:16;7.00;;;1.90;;
31442;SDS011;18065;55.876;9.830;2022-08-21T13:12:49;5.85;;;1.92;;
31442;SDS011;18065;55.876;9.830;2022-08-21T13:15:22;7.68;;;2.20;;
31442;SDS011;18065;55.876;9.830;2022-08-21T13:17:57;5.90;;;1.38;;
31442;SDS011;18065;55.876;9.830;2022-08-21T13:20:28;4.25;;;1.60;;
31442;SDS011;18065;55.876;9.830;2022-08-21T13:23:01;6.50;;;1.50;;
31442;SDS011;18065;55.876;9.830;2022-08-21T13:25:35;3.30;;;1.23;;
31442;SDS011;18065;55.876;9.830;2022-08-21T13:28:07;5.43;;;1.58;;
31442;SDS011;18065;55.876;9.830;2022-08-21T13:30:40;3.67;;;1.30;;
31442;SDS011;18065;55.876;9.830;2022-08-21T13:33:14;2.15;;;1.13;;
31442;SDS011;18065;55.876;9.830;2022-08-21T13:35:46;4.07;;;1.48;;
31442;SDS011;18065;55.876;9.830;2022-08-21T13:38:17;4.20;;;1.20;;
31442;SDS011;18065;55.876;9.830;2022-08-21T13:40:50;3.78;;;1.55;;
31442;SDS011;18065;55.876;9.830;2022-08-21T13:43:22;2.85;;;0.95;;
31442;SDS011;18065;55.876;9.830;2022-08-21T13:45:55;3.10;;;1.23;;
31442;SDS011;18065;55.876;9.830;2022-08-21T13:48:27;4.28;;;1.52;;
31442;SDS011;18065;55.876;9.830;2022-08-21T13:50:59;4.63;;;1.42;;
31442;SDS011;18065;55.876;9.830;2022-08-21T13:53:30;6.60;;;1.60;;
31442;SDS011;18065;55.876;9.830;2022-08-21T13:56:02;3.63;;;1.60;;
31442;SDS011;18065;55.876;9.830;2022-08-21T13:58:32;4.85;;;1.30;;
31442;SDS011;18065;55.876;9.830;2022-08-21T14:01:17;4.72;;;1.80;;
31442;SDS011;18065;55.876;9.830;2022-08-21T14:03:52;5.43;;;1.65;;
31442;SDS011;18065;55.876;9.830;2022-08-21T14:06:23;5.90;;;1.92;;
31442;SDS011;18065;55.876;9.830;2022-08-21T14:08:55;6.55;;;2.00;;
31442;SDS011;18065;55.876;9.830;2022-08-21T14:11:27;7.43;;;2.58;;
31442;SDS011;18065;55.876;9.830;2022-08-21T14:14:01;10.30;;;1.75;;
31442;SDS011;18065;55.876;9.830;2022-08-21T14:16:41;6.68;;;1.88;;
31442;SDS011;18065;55.876;9.830;2022-08-21T14:19:19;7.70;;;2.10;;
31442;SDS011;18065;55.876;9.830;2022-08-21T14:21:50;4.72;;;1.35;;
31442;SDS011;18065;55.876;9.830;2022-08-21T14:24:26;3.75;;;1.30;;
31442;SDS011;18065;55.876;9.830;2022-08-21T14:27:01;3.50;;;1.27;;
31442;SDS011;18065;55.876;9.830;2022-08-21T14:29:33;2.50;;;1.10;;
31442;SDS011;18065;55.876;9.830;2022-08-21T14:32:08;2.40;;;0.90;;
31442;SDS011;18065;55.876;9.830;2022-08-21T14:34:41;2.17;;;1.00;;
31442;SDS011;18065;55.876;9.830;2022-08-21T14:37:10;3.28;;;1.10;;
31442;SDS011;18065;55.876;9.830;2022-08-21T14:39:38;3.20;;;0.95;;
31442;SDS011;18065;55.876;9.830;2022-08-21T14:42:07;2.53;;;0.90;;
31442;SDS011;18065;55.876;9.830;2022-08-21T14:44:36;3.50;;;1.20;;
31442;SDS011;18065;55.876;9.830;2022-08-21T14:47:04;2.95;;;1.02;;
31442;SDS011;18065;55.876;9.830;2022-08-21T14:49:33;3.13;;;1.02;;
31442;SDS011;18065;55.876;9.830;2022-08-21T14:52:07;3.17;;;1.20;;
31442;SDS011;18065;55.876;9.830;2022-08-21T14:54:36;3.60;;;1.10;;
31442;SDS011;18065;55.876;9.830;2022-08-21T14:57:08;2.28;;;1.13;;
31442;SDS011;18065;55.876;9.830;2022-08-21T15:02:07;3.65;;;1.20;;
31442;SDS011;18065;55.876;9.830;2022-08-21T15:04:38;3.53;;;1.40;;
31442;SDS011;18065;55.876;9.830;2022-08-21T15:07:10;4.10;;;1.73;;
31442;SDS011;18065;55.876;9.830;2022-08-21T15:09:39;6.88;;;1.67;;
31442;SDS011;18065;55.876;9.830;2022-08-21T15:12:07;3.33;;;1.77;;
31442;SDS011;18065;55.876;9.830;2022-08-21T15:14:38;4.38;;;1.95;;
31442;SDS011;18065;55.876;9.830;2022-08-21T15:17:08;2.75;;;1.50;;
31442;SDS011;18065;55.876;9.830;2022-08-21T15:19:38;2.47;;;1.20;;
31442;SDS011;18065;55.876;9.830;2022-08-21T15:22:06;3.88;;;1.38;;
31442;SDS011;18065;55.876;9.830;2022-08-21T15:24:38;1.80;;;0.95;;
31442;SDS011;18065;55.876;9.830;2022-08-21T15:27:07;2.67;;;1.15;;